Time;durP1;ratioP1;P1;durP2;ratioP2;P2;SDS_P1;SDS_P2;PMS_P1;PMS_P2;Temp;Humidity;BMP_temperature;BMP_pressure;BME280_temperature;BME280_humidity;BME280_pressure;Samples;Min_cycle;Max_cycle;Signal;HPM_P1;HPM_P2
2022/05/11 04:31:21;;;;;;;27.37;25.17;;;15.30;99.90;;;;;;5542774;23;20551;-72
2022/05/11 04:33:50;;;;;;;30.00;26.17;;;15.30;99.90;;;;;;4937680;29;20492;-73
2022/05/11 04:36:17;;;;;;;28.00;25.80;;;15.40;99.90;;;;;;4932777;29;20457;-72
2022/05/11 04:38:43;;;;;;;26.23;24.00;;;15.40;99.90;;;;;;4941230;29;20511;-72
2022/05/11 04:41:11;;;;;;;25.43;23.50;;;15.40;99.90;;;;;;4952183;29;20460;-74
2022/05/11 04:43:37;;;;;;;27.80;25.60;;;15.50;99.90;;;;;;4952291;29;20452;-74
2022/05/11 04:46:04;;;;;;;29.27;26.00;;;15.60;99.90;;;;;;4953394;29;20459;-73
2022/05/11 04:48:32;;;;;;;28.27;25.60;;;15.80;99.90;;;;;;4952723;29;20479;-74
2022/05/11 04:51:04;;;;;;;26.33;23.93;;;15.80;99.90;;;;;;4952915;29;20452;-74
2022/05/11 04:53:31;;;;;;;28.37;25.97;;;16.00;99.90;;;;;;4952641;29;20461;-75
2022/05/11 04:55:58;;;;;;;26.17;23.97;;;16.00;99.90;;;;;;4952569;29;20457;-74
2022/05/11 04:58:25;;;;;;;26.97;24.57;;;16.10;99.90;;;;;;4951860;29;20492;-74
2022/05/11 05:00:53;;;;;;;26.73;24.30;;;16.10;99.90;;;;;;4952171;29;20519;-75
2022/05/11 05:03:20;;;;;;;24.53;22.57;;;16.20;99.90;;;;;;4952089;29;20464;-75
2022/05/11 05:05:48;;;;;;;27.00;24.53;;;16.20;99.90;;;;;;4952487;29;20461;-75
2022/05/11 05:08:15;;;;;;;26.70;24.47;;;16.10;99.90;;;;;;4952401;29;20452;-75
2022/05/11 05:10:43;;;;;;;24.60;21.77;;;16.30;99.90;;;;;;4952166;29;20448;-75
2022/05/11 05:13:11;;;;;;;28.30;25.87;;;16.40;99.90;;;;;;4952102;29;20468;-74
2022/05/11 05:15:40;;;;;;;26.10;23.60;;;16.50;99.90;;;;;;4951812;29;20452;-74
2022/05/11 05:18:07;;;;;;;25.33;23.27;;;16.80;99.90;;;;;;4952836;28;20769;-73
2022/05/11 05:20:35;;;;;;;27.67;24.30;;;17.10;99.90;;;;;;4955546;29;20500;-75
2022/05/11 05:23:03;;;;;;;26.47;23.97;;;17.20;99.90;;;;;;4955915;29;20824;-75
2022/05/11 05:25:30;;;;;;;27.30;25.07;;;17.30;99.90;;;;;;4955972;29;20859;-75
2022/05/11 05:31:04;;;;;;;28.47;25.70;;;17.30;99.90;;;;;;4956009;29;20519;-76
2022/05/11 05:33:30;;;;;;;28.07;25.67;;;17.80;99.90;;;;;;4955700;29;20511;-76
2022/05/11 05:35:57;;;;;;;27.27;24.60;;;18.10;99.90;;;;;;4955533;29;20463;-76
2022/05/11 05:38:25;;;;;;;26.70;24.07;;;18.60;99.90;;;;;;4949057;28;20469;-76
2022/05/11 05:40:52;;;;;;;25.67;23.23;;;19.30;99.90;;;;;;4944138;29;20458;-76
2022/05/11 05:43:19;;;;;;;25.67;23.57;;;19.90;99.90;;;;;;4936159;29;20505;-77
2022/05/11 05:45:49;;;;;;;25.37;23.33;;;20.30;99.90;;;;;;4936275;29;20951;-75
2022/05/11 05:48:16;;;;;;;24.30;22.13;;;20.10;99.90;;;;;;4936156;29;20831;-74
2022/05/11 05:50:43;;;;;;;24.23;22.20;;;20.40;99.90;;;;;;4936179;29;20457;-76
2022/05/11 05:53:10;;;;;;;23.07;21.07;;;20.70;99.90;;;;;;4936226;29;20873;-76
2022/05/11 05:55:38;;;;;;;22.17;20.10;;;20.80;99.90;;;;;;4935929;29;20548;-76
2022/05/11 05:58:06;;;;;;;21.33;19.80;;;21.00;99.90;;;;;;4936122;29;20824;-76
2022/05/11 06:00:33;;;;;;;20.37;18.73;;;21.10;99.90;;;;;;4935569;29;20564;-76
2022/05/11 06:03:00;;;;;;;19.87;18.53;;;21.00;99.90;;;;;;4936127;29;20445;-75
2022/05/11 06:05:28;;;;;;;19.60;18.30;;;21.10;99.90;;;;;;4935746;29;20464;-75
2022/05/11 06:07:55;;;;;;;20.20;18.80;;;21.20;99.90;;;;;;4935909;29;20476;-76
2022/05/11 06:10:22;;;;;;;18.23;16.87;;;21.30;99.90;;;;;;4935655;29;20457;-76
2022/05/11 06:12:50;;;;;;;19.43;18.33;;;21.10;99.90;;;;;;4935961;29;20461;-76
2022/05/11 06:15:17;;;;;;;17.97;16.60;;;21.10;99.90;;;;;;4935546;29;20450;-76
2022/05/11 06:17:44;;;;;;;18.20;17.10;;;21.20;99.90;;;;;;4935829;29;20458;-77
2022/05/11 06:20:11;;;;;;;19.33;17.70;;;21.30;99.90;;;;;;4935290;29;20497;-78
2022/05/11 06:22:38;;;;;;;18.27;17.07;;;21.40;99.90;;;;;;4935623;29;20458;-77
2022/05/11 06:25:06;;;;;;;18.70;17.60;;;21.50;99.90;;;;;;4935481;29;20468;-77
2022/05/11 06:27:33;;;;;;;19.47;18.17;;;21.50;99.90;;;;;;4935446;29;20465;-76
2022/05/11 06:30:04;;;;;;;19.07;17.93;;;22.10;99.90;;;;;;4935026;29;20975;-77
2022/05/11 06:32:30;;;;;;;19.87;18.47;;;22.50;99.90;;;;;;4935277;29;20517;-78
2022/05/11 06:34:57;;;;;;;20.60;19.07;;;22.50;99.90;;;;;;4935664;29;20457;-76
2022/05/11 06:37:24;;;;;;;20.00;18.80;;;22.60;99.90;;;;;;4935131;29;20464;-76
2022/05/11 06:39:52;;;;;;;19.80;18.40;;;22.90;99.60;;;;;;4937555;29;20521;-76
2022/05/11 06:42:20;;;;;;;19.00;17.97;;;22.90;98.90;;;;;;4948232;29;20463;-76
2022/05/11 06:44:47;;;;;;;18.90;17.40;;;23.00;98.90;;;;;;4954418;29;20512;-76
2022/05/11 06:47:15;;;;;;;19.47;18.47;;;23.10;98.90;;;;;;4954936;29;20453;-76
2022/05/11 06:49:42;;;;;;;19.00;18.00;;;23.40;98.50;;;;;;4954649;29;20456;-77
2022/05/11 06:52:09;;;;;;;19.30;18.07;;;23.50;98.30;;;;;;4954570;29;20456;-77
2022/05/11 07:00:05;;;;;;;19.57;18.10;;;23.90;97.60;;;;;;4953842;29;20487;-76
2022/05/11 07:02:37;;;;;;;18.27;17.27;;;23.80;97.30;;;;;;4954080;29;20452;-76
2022/05/11 07:05:04;;;;;;;19.33;17.87;;;24.30;96.70;;;;;;4954058;29;20535;-84
2022/05/11 07:07:31;;;;;;;18.07;17.00;;;24.40;96.20;;;;;;4954062;29;20456;-75
2022/05/11 07:09:58;;;;;;;19.17;17.70;;;24.70;95.70;;;;;;4953753;29;20810;-77
2022/05/11 07:12:25;;;;;;;17.30;16.17;;;24.70;95.70;;;;;;4953526;29;20464;-75
2022/05/11 07:14:57;;;;;;;17.13;16.03;;;24.80;95.60;;;;;;4953952;29;20456;-81
2022/05/11 07:17:25;;;;;;;19.93;18.63;;;25.30;94.80;;;;;;4953686;29;20452;-76
2022/05/11 07:19:53;;;;;;;19.23;17.93;;;25.80;93.40;;;;;;4953154;29;20481;-81
2022/05/11 07:22:20;;;;;;;19.57;17.97;;;25.90;93.30;;;;;;4953434;29;20452;-75
2022/05/11 07:24:47;;;;;;;17.63;16.73;;;26.00;93.10;;;;;;4953558;28;20452;-76
2022/05/11 07:27:14;;;;;;;19.30;18.20;;;26.20;92.30;;;;;;4949753;29;20456;-77
2022/05/11 07:29:40;;;;;;;19.10;17.97;;;26.20;92.20;;;;;;4951025;28;20473;-80
2022/05/11 07:32:09;;;;;;;18.93;17.83;;;26.30;92.20;;;;;;4953014;28;20496;-78
2022/05/11 07:34:35;;;;;;;18.20;17.00;;;26.40;91.90;;;;;;4952909;29;20460;-77
2022/05/11 07:37:04;;;;;;;19.50;17.87;;;26.70;91.30;;;;;;4953199;29;20828;-78
2022/05/11 07:39:31;;;;;;;18.40;17.50;;;26.80;91.00;;;;;;4953032;29;20512;-77
2022/05/11 07:41:58;;;;;;;18.87;17.83;;;26.90;90.50;;;;;;4952292;28;20826;-77
2022/05/11 07:44:25;;;;;;;19.60;18.40;;;26.70;90.50;;;;;;4952552;29;20457;-78
2022/05/11 07:46:53;;;;;;;18.73;17.63;;;26.70;90.20;;;;;;4952738;29;20805;-77
2022/05/11 07:49:20;;;;;;;17.87;16.67;;;27.10;88.60;;;;;;4952698;29;20452;-78
2022/05/11 07:51:49;;;;;;;18.60;17.63;;;27.50;85.70;;;;;;4952772;29;20449;-78
2022/05/11 07:54:17;;;;;;;16.50;15.63;;;27.70;85.10;;;;;;4952852;29;21037;-78
2022/05/11 08:02:09;;;;;;;16.40;15.60;;;28.70;79.90;;;;;;4939849;29;20441;-77
2022/05/11 08:04:36;;;;;;;16.87;15.97;;;28.70;77.70;;;;;;4952541;29;20460;-76
2022/05/11 08:07:04;;;;;;;16.70;16.00;;;28.90;76.80;;;;;;4952679;29;20467;-77
2022/05/11 08:09:33;;;;;;;17.60;16.70;;;29.30;75.30;;;;;;4952722;29;20511;-78
2022/05/11 08:12:00;;;;;;;17.80;17.00;;;29.80;73.30;;;;;;4952513;29;20451;-78
2022/05/11 08:14:27;;;;;;;16.90;16.10;;;29.80;72.40;;;;;;4952705;29;20445;-78
2022/05/11 08:16:54;;;;;;;17.40;16.60;;;29.70;71.90;;;;;;4952575;29;20461;-78
2022/05/11 08:19:22;;;;;;;16.63;15.80;;;29.90;71.80;;;;;;4952313;28;20458;-81
2022/05/11 08:21:50;;;;;;;17.20;16.50;;;30.50;69.40;;;;;;4952533;29;20462;-81
2022/05/11 08:24:17;;;;;;;16.80;16.20;;;30.80;66.60;;;;;;4952797;29;20456;-81
2022/05/11 08:26:46;;;;;;;17.10;16.20;;;30.90;66.40;;;;;;4952651;29;20935;-80
2022/05/11 08:33:18;;;;;;;16.97;15.77;;;31.70;63.50;;;;;;4952577;28;20539;-80
2022/05/11 08:34:44;;;;;;;16.97;16.27;;;31.90;61.60;;;;;;4952816;29;20961;-81
2022/05/11 08:37:12;;;;;;;16.73;16.13;;;31.80;61.60;;;;;;4952397;29;20823;-80
2022/05/11 08:39:38;;;;;;;16.33;15.47;;;31.70;59.70;;;;;;4952151;29;20970;-80
2022/05/11 08:42:07;;;;;;;17.10;16.40;;;31.60;59.80;;;;;;4952409;29;20442;-77
2022/05/11 08:44:39;;;;;;;17.00;16.20;;;31.00;60.40;;;;;;4952061;29;20456;-78
2022/05/11 08:47:15;;;;;;;16.17;15.27;;;31.40;59.90;;;;;;4952122;29;20460;-79
2022/05/11 08:49:50;;;;;;;17.90;16.90;;;32.10;58.80;;;;;;4952317;29;20456;-81
2022/05/11 08:52:25;;;;;;;16.93;16.10;;;33.10;56.80;;;;;;4953663;28;20459;-79
2022/05/11 08:54:59;;;;;;;17.87;16.97;;;32.40;57.20;;;;;;4956115;28;20601;-77
2022/05/11 08:57:28;;;;;;;18.07;16.77;;;31.90;58.00;;;;;;4955934;29;20463;-77
2022/05/11 09:00:00;;;;;;;16.17;15.47;;;31.80;58.20;;;;;;4955712;29;20498;-78
2022/05/11 09:02:31;;;;;;;17.53;16.80;;;32.40;57.50;;;;;;4955912;29;20465;-77
2022/05/11 09:04:59;;;;;;;17.00;16.30;;;33.00;55.50;;;;;;4955736;29;20464;-78
2022/05/11 09:07:28;;;;;;;17.53;16.83;;;33.20;55.30;;;;;;4955619;29;20457;-76
2022/05/11 09:09:55;;;;;;;17.83;16.73;;;33.70;55.20;;;;;;4953745;28;20456;-77
2022/05/11 09:12:23;;;;;;;16.80;16.00;;;34.00;54.20;;;;;;4955294;29;20547;-77
2022/05/11 09:14:55;;;;;;;17.67;16.57;;;33.60;52.60;;;;;;4955094;29;20452;-77
2022/05/11 09:17:25;;;;;;;17.40;16.60;;;33.20;53.50;;;;;;4956255;29;20733;-77
2022/05/11 09:20:06;;;;;;;17.83;16.93;;;33.40;53.00;;;;;;4955266;29;20492;-77
2022/05/11 09:22:35;;;;;;;18.13;17.13;;;33.40;53.00;;;;;;4956267;29;20456;-75
2022/05/11 09:25:11;;;;;;;16.43;15.73;;;33.00;53.80;;;;;;4956215;29;20461;-75
2022/05/11 09:27:39;;;;;;;17.03;16.00;;;32.20;54.90;;;;;;4957312;29;20949;-75
2022/05/11 09:30:17;;;;;;;16.50;15.83;;;32.30;55.20;;;;;;4964436;28;20472;-77
2022/05/11 09:32:45;;;;;;;16.30;15.70;;;33.00;54.70;;;;;;4956209;29;20570;-78
2022/05/11 09:35:22;;;;;;;17.20;16.20;;;33.70;53.30;;;;;;4953448;29;20957;-76
2022/05/11 09:38:02;;;;;;;17.53;16.53;;;34.50;52.50;;;;;;4955056;28;20471;-78
2022/05/11 09:40:30;;;;;;;18.00;17.10;;;34.70;52.00;;;;;;4955043;29;20573;-77
2022/05/11 09:42:59;;;;;;;16.73;15.90;;;35.00;50.60;;;;;;4955294;28;20468;-77
2022/05/11 09:45:43;;;;;;;16.80;16.10;;;35.30;50.30;;;;;;4961096;28;20480;-78
2022/05/11 09:48:13;;;;;;;18.47;17.60;;;35.80;49.60;;;;;;4961789;29;20456;-78
2022/05/11 09:50:41;;;;;;;16.83;16.13;;;35.40;49.00;;;;;;4956862;28;20868;-78
2022/05/11 09:53:24;;;;;;;17.50;16.80;;;35.30;50.00;;;;;;4956474;28;20985;-77
2022/05/11 09:55:52;;;;;;;18.67;16.90;;;35.40;48.80;;;;;;4956208;29;20452;-77
2022/05/11 09:58:29;;;;;;;18.43;17.63;;;35.30;49.20;;;;;;4956363;29;20452;-77
2022/05/11 10:01:11;;;;;;;17.50;16.80;;;35.00;49.40;;;;;;4953662;28;20633;-76
2022/05/11 10:03:43;;;;;;;18.17;16.97;;;35.40;49.20;;;;;;4953864;28;20565;-76
2022/05/11 10:06:11;;;;;;;17.33;16.63;;;36.40;48.10;;;;;;4954275;29;20457;-76
2022/05/11 10:08:43;;;;;;;17.17;16.47;;;36.00;48.10;;;;;;4954268;28;20759;-77
2022/05/11 10:11:16;;;;;;;18.30;17.40;;;35.00;49.00;;;;;;4954337;29;20555;-76
2022/05/11 10:13:50;;;;;;;17.23;16.37;;;34.80;49.50;;;;;;4954303;28;20548;-77
2022/05/11 10:22:01;;;;;;;17.87;16.70;;;34.80;48.70;;;;;;4954284;29;21049;-74
2022/05/11 10:24:49;;;;;;;17.80;16.70;;;35.50;48.20;;;;;;4954468;29;20452;-75
2022/05/11 10:27:24;;;;;;;17.50;16.70;;;34.90;47.90;;;;;;4954526;28;20934;-77
2022/05/11 10:30:13;;;;;;;16.73;16.00;;;34.70;48.60;;;;;;4954035;28;20487;-75
2022/05/11 10:32:56;;;;;;;17.43;16.10;;;35.40;48.00;;;;;;4953712;29;20847;-75
2022/05/11 10:35:30;;;;;;;16.47;15.67;;;35.20;47.00;;;;;;4953961;29;20478;-74
2022/05/11 10:38:18;;;;;;;17.07;16.17;;;34.00;48.90;;;;;;4954299;29;20463;-75
2022/05/11 10:40:54;;;;;;;15.97;15.20;;;33.90;48.70;;;;;;4953953;28;20488;-75
2022/05/11 10:43:44;;;;;;;17.60;16.80;;;34.40;47.80;;;;;;4953922;28;20460;-75
2022/05/11 10:46:15;;;;;;;16.80;16.10;;;33.80;48.50;;;;;;4953826;29;20947;-75
2022/05/11 10:49:16;;;;;;;18.07;17.07;;;33.90;48.40;;;;;;4953972;28;20464;-77
2022/05/11 10:51:52;;;;;;;17.93;17.03;;;34.00;46.90;;;;;;4941169;29;20485;-76
2022/05/11 10:54:25;;;;;;;15.73;15.10;;;34.40;46.10;;;;;;4953767;29;20452;-74
2022/05/11 10:57:03;;;;;;;17.37;16.57;;;34.20;46.10;;;;;;4953565;29;20993;-75
2022/05/11 11:00:12;;;;;;;17.37;16.47;;;34.40;45.60;;;;;;4953883;28;20491;-74
2022/05/11 11:03:08;;;;;;;18.30;17.40;;;34.30;45.50;;;;;;4943577;29;20468;-75
2022/05/11 11:07:10;;;;;;;17.27;16.37;;;34.00;46.10;;;;;;4953528;29;20826;-76
2022/05/11 11:08:42;;;;;;;16.40;15.60;;;34.10;45.80;;;;;;4953328;29;20457;-75
2022/05/11 11:11:16;;;;;;;17.53;16.73;;;34.00;45.30;;;;;;4953175;29;20445;-75
2022/05/11 11:13:51;;;;;;;16.17;15.47;;;32.90;47.50;;;;;;4953451;29;20447;-76
2022/05/11 11:16:18;;;;;;;15.80;15.20;;;32.90;47.00;;;;;;4952745;28;20449;-76
2022/05/11 11:18:49;;;;;;;17.17;16.07;;;33.70;45.80;;;;;;4953520;29;20449;-75
2022/05/11 11:21:19;;;;;;;16.87;16.07;;;34.10;45.60;;;;;;4953361;29;20489;-76
2022/05/11 11:24:07;;;;;;;16.63;15.83;;;34.60;44.80;;;;;;4953268;29;20496;-76
2022/05/11 11:26:50;;;;;;;16.60;15.90;;;35.20;44.00;;;;;;4953063;29;20456;-77
2022/05/11 11:29:21;;;;;;;16.33;15.63;;;35.60;43.70;;;;;;4952990;28;20476;-77
2022/05/11 11:32:11;;;;;;;17.10;16.23;;;36.60;42.90;;;;;;4950570;29;20476;-76
2022/05/11 11:34:39;;;;;;;17.10;16.30;;;37.20;41.80;;;;;;4951099;29;20511;-75
2022/05/11 11:37:48;;;;;;;17.57;16.70;;;38.30;40.10;;;;;;4952844;29;20449;-75
2022/05/11 11:40:27;;;;;;;17.00;16.33;;;36.90;39.40;;;;;;4952818;29;20459;-76
2022/05/11 11:42:55;;;;;;;17.70;16.87;;;35.80;40.50;;;;;;4952684;29;20780;-76
2022/05/11 11:45:58;;;;;;;16.87;16.07;;;35.70;40.40;;;;;;4952565;29;20456;-77
2022/05/11 11:48:27;;;;;;;16.83;15.73;;;35.60;41.70;;;;;;4952716;29;20459;-78
2022/05/11 11:50:55;;;;;;;17.57;16.77;;;36.50;40.90;;;;;;4952411;29;21139;-77
2022/05/11 11:53:25;;;;;;;17.27;16.37;;;36.60;40.70;;;;;;4952482;29;20459;-77
2022/05/11 11:55:52;;;;;;;17.37;16.67;;;36.50;39.90;;;;;;4952413;29;20965;-77
2022/05/11 11:58:30;;;;;;;16.80;16.10;;;37.00;39.60;;;;;;4952394;29;20801;-77
2022/05/11 12:01:08;;;;;;;16.93;16.13;;;36.30;39.20;;;;;;4952390;29;20495;-74
2022/05/11 12:03:38;;;;;;;16.30;15.60;;;35.20;37.80;;;;;;4952182;28;20455;-76
2022/05/11 12:17:28;;;;;;;15.93;15.23;;;34.70;38.90;;;;;;4952248;29;20455;-74
2022/05/11 12:20:04;;;;;;;15.27;14.67;;;34.80;37.80;;;;;;4952023;29;20448;-75
2022/05/11 12:22:31;;;;;;;16.10;15.30;;;34.40;38.40;;;;;;4952427;28;20496;-74
2022/05/11 12:25:01;;;;;;;15.70;15.10;;;34.20;39.60;;;;;;4952320;29;20467;-75
2022/05/11 12:27:30;;;;;;;16.03;15.30;;;34.20;39.60;;;;;;4951976;28;20460;-75
2022/05/11 12:30:02;;;;;;;15.60;15.00;;;33.90;39.40;;;;;;4952197;28;20495;-75
2022/05/11 12:32:31;;;;;;;16.10;15.10;;;34.10;40.10;;;;;;4950586;29;20476;-75
2022/05/11 12:35:07;;;;;;;17.30;16.50;;;34.80;39.10;;;;;;4952128;29;20551;-74
2022/05/11 12:37:37;;;;;;;15.70;15.00;;;35.30;37.90;;;;;;4951991;29;20455;-75
2022/05/11 12:40:08;;;;;;;15.70;15.10;;;35.60;37.60;;;;;;4951931;29;20453;-74
2022/05/11 12:42:38;;;;;;;15.77;14.97;;;36.20;36.90;;;;;;4951821;29;20505;-74
2022/05/11 12:45:10;;;;;;;16.33;15.50;;;36.30;37.20;;;;;;4951803;29;20448;-76
2022/05/11 12:47:45;;;;;;;15.80;15.10;;;35.60;36.00;;;;;;4952167;29;20793;-76
2022/05/11 12:50:19;;;;;;;16.07;15.30;;;35.20;35.80;;;;;;4951956;29;20448;-76
2022/05/11 12:52:46;;;;;;;15.00;14.20;;;35.30;35.30;;;;;;4952308;29;20456;-75
2022/05/11 12:55:13;;;;;;;15.87;15.17;;;35.20;35.40;;;;;;4952270;29;20453;-76
2022/05/11 12:57:42;;;;;;;15.00;14.40;;;34.80;36.50;;;;;;4951988;29;20864;-75
2022/05/11 13:00:19;;;;;;;15.30;14.60;;;34.70;36.30;;;;;;4951905;29;20701;-75
2022/05/11 13:02:48;;;;;;;15.67;15.00;;;34.00;35.90;;;;;;4952105;29;20498;-73
2022/05/11 13:05:17;;;;;;;16.00;15.40;;;34.00;35.70;;;;;;4952017;29;20464;-74
2022/05/11 13:07:49;;;;;;;16.50;15.70;;;34.10;36.40;;;;;;4952107;28;20488;-74
2022/05/11 13:10:19;;;;;;;16.10;15.23;;;34.20;36.30;;;;;;4951932;28;20955;-74
2022/05/11 13:12:51;;;;;;;14.77;14.17;;;34.60;36.60;;;;;;4952228;29;20444;-75
2022/05/11 13:15:36;;;;;;;16.90;16.10;;;35.10;35.40;;;;;;4951863;29;20488;-75
2022/05/11 13:18:03;;;;;;;16.97;16.20;;;34.90;35.00;;;;;;4951883;29;20456;-75
2022/05/11 13:20:36;;;;;;;15.77;15.07;;;35.10;35.80;;;;;;4951986;28;20476;-75
2022/05/11 13:23:04;;;;;;;16.10;15.47;;;34.80;35.10;;;;;;4951877;28;20452;-74
2022/05/11 13:25:41;;;;;;;15.40;14.67;;;34.50;35.50;;;;;;4951849;29;20448;-76
2022/05/11 13:28:12;;;;;;;15.63;15.00;;;34.40;35.00;;;;;;4951714;29;21028;-75
2022/05/11 13:30:44;;;;;;;16.03;15.20;;;34.10;35.50;;;;;;4951184;28;20488;-76
2022/05/11 13:33:43;;;;;;;13.73;13.23;;;34.00;36.40;;;;;;4951518;28;20989;-76
2022/05/11 13:36:20;;;;;;;16.03;15.23;;;33.90;35.30;;;;;;4951500;29;20821;-76
2022/05/11 13:38:56;;;;;;;15.10;14.50;;;33.60;36.80;;;;;;4952086;28;20456;-76
2022/05/11 13:41:26;;;;;;;15.13;14.43;;;34.20;36.20;;;;;;4955218;29;20879;-76
2022/05/11 13:43:55;;;;;;;15.90;15.30;;;34.60;35.90;;;;;;4954850;29;20982;-74
2022/05/11 13:48:11;;;;;;;15.80;14.90;;;34.90;36.10;;;;;;4955100;29;20448;-75
2022/05/11 13:49:39;;;;;;;15.00;14.30;;;34.40;34.90;;;;;;4954994;29;20507;-75
2022/05/11 13:52:09;;;;;;;16.00;15.20;;;34.00;34.90;;;;;;4955097;29;20455;-75
2022/05/11 13:54:43;;;;;;;14.80;14.20;;;33.60;35.40;;;;;;4955186;29;20452;-76
2022/05/11 13:57:24;;;;;;;15.50;14.63;;;33.60;36.10;;;;;;4955070;29;20479;-76
2022/05/11 13:59:53;;;;;;;16.07;15.47;;;33.50;36.40;;;;;;4954798;28;20452;-76
2022/05/11 14:02:22;;;;;;;16.37;15.47;;;33.90;35.10;;;;;;4954731;29;20487;-74
2022/05/11 14:04:49;;;;;;;14.97;14.33;;;33.80;34.60;;;;;;4954744;29;20543;-74
2022/05/11 14:07:29;;;;;;;14.90;14.40;;;33.60;33.60;;;;;;4955223;29;20938;-76
2022/05/11 14:09:56;;;;;;;15.60;15.00;;;33.10;33.70;;;;;;4954757;29;20965;-75
2022/05/11 14:12:24;;;;;;;14.10;13.40;;;32.90;34.70;;;;;;4954515;29;21022;-74
2022/05/11 14:14:52;;;;;;;15.53;14.73;;;32.90;35.20;;;;;;4955091;28;20503;-76
2022/05/11 14:17:23;;;;;;;15.20;14.17;;;32.80;35.40;;;;;;4954959;29;20457;-75
2022/05/11 14:19:54;;;;;;;15.47;14.70;;;33.00;35.50;;;;;;4955351;29;20453;-76
2022/05/11 14:22:21;;;;;;;15.17;14.37;;;32.90;34.50;;;;;;4954592;28;21030;-76
2022/05/11 14:24:47;;;;;;;15.40;14.50;;;32.50;34.50;;;;;;4954592;29;20469;-76
2022/05/11 14:27:16;;;;;;;15.60;15.00;;;32.40;34.80;;;;;;4955570;29;20453;-76
2022/05/11 14:29:44;;;;;;;15.63;14.77;;;32.30;35.00;;;;;;4954952;28;20480;-77
2022/05/11 14:32:22;;;;;;;14.90;14.20;;;32.10;35.30;;;;;;4954857;28;20524;-77
2022/05/11 14:34:50;;;;;;;14.60;13.90;;;32.30;35.60;;;;;;4955336;29;20464;-77
2022/05/11 14:37:17;;;;;;;14.07;13.47;;;32.10;35.10;;;;;;4954695;29;20456;-76
2022/05/11 14:39:44;;;;;;;14.70;14.10;;;32.30;35.70;;;;;;4955147;29;20452;-76
2022/05/11 14:42:10;;;;;;;15.07;14.13;;;32.30;35.30;;;;;;4954140;29;20488;-76
2022/05/11 14:44:37;;;;;;;14.00;13.23;;;32.10;35.80;;;;;;4954183;29;20460;-76
2022/05/11 14:47:04;;;;;;;14.57;13.97;;;32.00;36.20;;;;;;4954431;29;20467;-76
2022/05/11 14:49:31;;;;;;;14.47;13.80;;;31.90;37.00;;;;;;4954277;28;20452;-76
2022/05/11 14:52:00;;;;;;;14.03;13.43;;;31.80;37.90;;;;;;4954088;29;20445;-76
2022/05/11 14:54:26;;;;;;;13.63;13.13;;;31.60;37.90;;;;;;4953735;29;20467;-76
2022/05/11 15:02:19;;;;;;;13.10;12.60;;;30.30;38.80;;;;;;4950408;29;20573;-76
2022/05/11 15:04:46;;;;;;;14.10;13.50;;;30.00;38.60;;;;;;4953839;29;20955;-75
2022/05/11 15:07:16;;;;;;;13.37;12.87;;;29.80;39.50;;;;;;4953974;29;20449;-73
2022/05/11 15:09:44;;;;;;;13.73;13.13;;;29.70;39.10;;;;;;4953873;29;20452;-74
2022/05/11 15:14:56;;;;;;;14.80;14.00;;;29.40;40.40;;;;;;4955189;29;20436;-76
2022/05/11 15:17:26;;;;;;;14.13;13.43;;;29.40;41.80;;;;;;4965981;29;20439;-76
2022/05/11 15:19:53;;;;;;;13.73;13.03;;;29.30;43.10;;;;;;4969792;29;20449;-76
2022/05/11 15:22:21;;;;;;;13.60;13.00;;;29.30;43.60;;;;;;4953805;29;21032;-77
2022/05/11 15:24:48;;;;;;;14.03;13.43;;;29.30;42.90;;;;;;4954255;28;20461;-77
2022/05/11 15:27:15;;;;;;;13.57;12.83;;;29.30;42.80;;;;;;4954277;29;20455;-75
2022/05/11 15:29:42;;;;;;;12.60;12.10;;;29.30;43.20;;;;;;4953783;28;20473;-76
2022/05/11 15:32:17;;;;;;;13.03;12.43;;;29.40;43.60;;;;;;4953215;29;20484;-76
2022/05/11 15:34:44;;;;;;;14.70;13.97;;;29.40;43.30;;;;;;4953292;29;21011;-75
2022/05/11 15:37:10;;;;;;;13.00;12.50;;;29.40;43.60;;;;;;4952836;29;20464;-76
2022/05/11 15:39:38;;;;;;;14.27;13.67;;;29.40;44.20;;;;;;4952517;29;20461;-76
2022/05/11 15:42:06;;;;;;;13.67;13.07;;;29.20;43.60;;;;;;4934023;29;20528;-76
2022/05/11 15:44:32;;;;;;;12.70;12.20;;;29.10;43.80;;;;;;4920887;29;20473;-76
2022/05/11 15:46:59;;;;;;;14.90;14.17;;;29.00;43.70;;;;;;4914958;29;20454;-77
2022/05/11 15:49:26;;;;;;;14.10;13.50;;;28.90;44.30;;;;;;4915196;29;20469;-76
2022/05/11 15:51:53;;;;;;;13.63;13.13;;;28.90;44.20;;;;;;4914848;29;20461;-76
2022/05/11 15:54:21;;;;;;;14.30;12.93;;;29.00;44.50;;;;;;4915042;29;20462;-76
2022/05/11 15:56:49;;;;;;;14.33;13.53;;;29.10;44.40;;;;;;4914803;29;21142;-76
2022/05/11 15:59:17;;;;;;;14.17;13.37;;;29.00;43.70;;;;;;4914810;29;20454;-76
2022/05/11 16:01:44;;;;;;;14.10;13.30;;;29.00;43.80;;;;;;4914230;29;20459;-76
2022/05/11 16:04:12;;;;;;;13.80;13.30;;;29.00;43.60;;;;;;4914533;29;20465;-76
2022/05/11 16:06:39;;;;;;;14.70;14.00;;;29.00;43.50;;;;;;4914208;29;20894;-74
2022/05/11 16:09:07;;;;;;;14.43;13.50;;;29.00;44.30;;;;;;4914345;29;20454;-75
2022/05/11 16:11:37;;;;;;;14.57;13.77;;;29.00;43.80;;;;;;4914397;29;20844;-76
2022/05/11 16:14:07;;;;;;;14.73;14.03;;;28.90;43.60;;;;;;4914466;29;20469;-76
2022/05/11 16:16:34;;;;;;;15.47;14.77;;;28.90;43.60;;;;;;4914895;29;20944;-76
2022/05/11 16:21:45;;;;;;;14.17;13.57;;;28.80;44.00;;;;;;4915077;29;20438;-76
2022/05/11 16:24:14;;;;;;;14.70;14.00;;;28.80;44.00;;;;;;4914290;29;20454;-74
2022/05/11 16:30:01;;;;;;;14.07;13.47;;;28.80;43.90;;;;;;4932950;28;20463;-76
2022/05/11 16:32:29;;;;;;;14.80;14.00;;;28.70;43.00;;;;;;4952085;28;20500;-77
2022/05/11 16:34:56;;;;;;;13.83;13.33;;;28.60;43.50;;;;;;4933161;29;20450;-77
2022/05/11 16:37:23;;;;;;;13.90;13.40;;;28.60;43.70;;;;;;4932389;29;20453;-77
2022/05/11 16:39:51;;;;;;;14.40;13.60;;;28.50;43.30;;;;;;4932617;29;20449;-78
2022/05/11 16:42:22;;;;;;;14.17;13.43;;;28.50;43.90;;;;;;4932847;29;20492;-76
2022/05/11 16:44:50;;;;;;;15.30;14.40;;;28.50;43.70;;;;;;4932796;29;20489;-78
2022/05/11 16:47:18;;;;;;;14.27;13.70;;;28.50;43.60;;;;;;4932589;29;20445;-77
2022/05/11 16:49:49;;;;;;;14.80;14.10;;;28.40;43.50;;;;;;4932455;29;20446;-76
2022/05/11 16:52:17;;;;;;;14.70;13.97;;;28.40;43.50;;;;;;4931671;29;20481;-76
2022/05/11 16:54:44;;;;;;;14.80;14.10;;;28.40;42.60;;;;;;4931523;29;20952;-76
2022/05/11 16:57:11;;;;;;;15.57;14.87;;;28.40;42.50;;;;;;4930982;29;20450;-76
2022/05/11 16:59:38;;;;;;;14.67;14.00;;;28.30;42.70;;;;;;4930124;29;20448;-75
2022/05/11 17:02:06;;;;;;;14.17;13.27;;;28.20;42.30;;;;;;4931307;29;20534;-76
2022/05/11 17:04:34;;;;;;;14.57;13.87;;;28.20;42.80;;;;;;4931518;29;20638;-74
2022/05/11 17:07:01;;;;;;;15.67;14.80;;;28.10;42.70;;;;;;4931572;29;20449;-75
2022/05/11 17:09:28;;;;;;;14.23;13.43;;;28.10;43.00;;;;;;4932295;29;20465;-74
2022/05/11 17:11:55;;;;;;;14.20;13.50;;;28.10;43.40;;;;;;4931808;29;20461;-74
2022/05/11 17:14:24;;;;;;;14.83;14.13;;;28.00;43.60;;;;;;4934532;29;20460;-74
2022/05/11 17:16:51;;;;;;;14.80;14.10;;;28.00;44.20;;;;;;4935438;29;20484;-75
2022/05/11 17:19:21;;;;;;;13.73;13.13;;;28.00;44.20;;;;;;4935679;29;20457;-75
2022/05/11 17:21:49;;;;;;;14.37;13.50;;;28.00;44.40;;;;;;4935347;29;20461;-75
2022/05/11 17:24:16;;;;;;;14.60;14.00;;;27.90;44.80;;;;;;4935585;29;20468;-75
2022/05/11 17:26:42;;;;;;;14.27;13.77;;;27.80;45.20;;;;;;4935225;29;20813;-75
2022/05/11 17:29:09;;;;;;;14.20;13.60;;;27.70;45.20;;;;;;4935555;29;20557;-76
2022/05/11 17:31:38;;;;;;;13.67;12.93;;;27.70;45.10;;;;;;4934445;29;20469;-76
2022/05/11 17:34:05;;;;;;;14.43;13.70;;;27.60;45.60;;;;;;4932613;29;20943;-75
2022/05/11 17:36:32;;;;;;;15.13;14.43;;;27.60;45.10;;;;;;4935254;29;20963;-75
2022/05/11 17:39:00;;;;;;;14.20;13.60;;;27.50;45.40;;;;;;4935589;29;20441;-74
2022/05/11 17:41:26;;;;;;;14.00;13.20;;;27.40;45.10;;;;;;4935301;29;20441;-75
2022/05/11 17:43:53;;;;;;;14.73;13.43;;;27.40;44.90;;;;;;4934571;29;21436;-76
2022/05/11 17:46:20;;;;;;;13.63;12.93;;;27.30;44.70;;;;;;4935626;29;20497;-75
2022/05/11 17:48:47;;;;;;;12.57;11.97;;;27.30;44.70;;;;;;4935744;29;20461;-75
2022/05/11 17:51:14;;;;;;;12.57;11.97;;;27.30;44.00;;;;;;4933292;29;20457;-75
2022/05/11 17:53:40;;;;;;;13.00;12.50;;;27.20;43.90;;;;;;4934602;29;20833;-74
2022/05/11 17:56:09;;;;;;;14.23;13.40;;;27.20;43.70;;;;;;4934999;29;20445;-74
2022/05/11 17:58:36;;;;;;;12.97;12.37;;;27.20;44.50;;;;;;4931818;29;20453;-74
2022/05/11 18:01:03;;;;;;;14.27;13.37;;;27.10;43.90;;;;;;4934474;29;20461;-74
2022/05/11 18:03:30;;;;;;;12.80;12.20;;;27.00;44.00;;;;;;4937724;29;20493;-74